createdAt,value
2023-04-15T00:01:27.001Z,3.90
2023-04-15T00:06:28.868Z,4.00
2023-04-15T00:11:30.735Z,4.00
2023-04-15T00:16:33.068Z,4.10
2023-04-15T00:21:35.039Z,4.10
2023-04-15T00:26:36.889Z,4.10
2023-04-15T00:31:38.730Z,4.10
2023-04-15T00:36:40.604Z,4.10
2023-04-15T00:41:44.449Z,4.10
2023-04-15T00:46:48.723Z,4.10
2023-04-15T00:51:50.603Z,4.20
2023-04-15T00:56:52.518Z,4.10
2023-04-15T01:01:54.521Z,4.20
2023-04-15T01:06:56.850Z,4.20
2023-04-15T01:11:58.812Z,4.20
2023-04-15T01:17:00.865Z,4.20
2023-04-15T01:22:03.725Z,4.20
2023-04-15T01:27:05.848Z,4.30
2023-04-15T01:32:07.893Z,4.40
2023-04-15T01:37:09.740Z,4.30
2023-04-15T01:42:12.302Z,4.30
2023-04-15T01:47:14.386Z,4.30
2023-04-15T01:52:16.260Z,4.30
2023-04-15T01:57:18.107Z,4.40
2023-04-15T02:02:20.455Z,4.40
2023-04-15T02:07:22.400Z,4.40
2023-04-15T02:12:24.237Z,4.40
2023-04-15T02:17:26.206Z,4.40
2023-04-15T02:22:28.141Z,4.40
2023-04-15T02:27:30.634Z,4.40
2023-04-15T02:32:32.621Z,4.40
2023-04-15T02:37:40.594Z,4.40
2023-04-15T02:42:44.272Z,4.40
2023-04-15T02:47:47.375Z,4.40
2023-04-15T02:52:49.673Z,4.40
2023-04-15T02:57:51.613Z,4.40
2023-04-15T03:02:58.736Z,4.50
2023-04-15T03:08:01.510Z,4.50
2023-04-15T03:13:03.406Z,4.50
2023-04-15T03:18:05.272Z,4.50
2023-04-15T03:23:07.136Z,4.50
2023-04-15T03:28:08.992Z,4.50
2023-04-15T03:33:13.828Z,4.60
2023-04-15T03:38:15.698Z,4.60
2023-04-15T03:43:17.688Z,4.60
2023-04-15T03:48:19.554Z,4.60
2023-04-15T03:53:21.517Z,4.60
2023-04-15T03:58:23.332Z,4.60
2023-04-15T04:03:25.477Z,4.60
2023-04-15T04:08:27.617Z,4.60
2023-04-15T04:13:29.511Z,4.60
2023-04-15T04:18:32.446Z,4.70
2023-04-15T04:23:34.282Z,4.70
2023-04-15T04:28:36.582Z,4.70
2023-04-15T04:33:38.448Z,4.70
2023-04-15T04:38:40.317Z,4.70
2023-04-15T04:43:42.462Z,4.80
2023-04-15T04:48:46.619Z,4.80
2023-04-15T04:53:49.054Z,4.80
2023-04-15T04:58:51.321Z,4.90
2023-04-15T05:03:53.556Z,5.00
2023-04-15T05:08:56.730Z,5.00
2023-04-15T05:14:02.242Z,5.00
2023-04-15T05:19:04.179Z,5.10
2023-04-15T05:24:06.448Z,5.10
2023-04-15T05:29:08.362Z,5.10
2023-04-15T05:34:11.728Z,5.20
2023-04-15T05:39:13.671Z,5.20
2023-04-15T05:44:15.810Z,5.30
2023-04-15T05:49:17.760Z,5.30
2023-04-15T05:54:20.368Z,5.40
2023-04-15T05:59:22.313Z,5.50
2023-04-15T06:04:24.416Z,5.60
2023-04-15T06:09:26.439Z,5.70
2023-04-15T06:14:28.291Z,5.80
2023-04-15T06:19:30.599Z,5.90
2023-04-15T06:24:33.166Z,5.90
2023-04-15T06:29:35.015Z,5.90
2023-04-15T06:34:36.845Z,5.90
2023-04-15T06:39:38.693Z,5.90
2023-04-15T06:44:41.413Z,5.90
2023-04-15T06:49:43.588Z,6.10
2023-04-15T06:54:45.461Z,6.20
2023-04-15T06:59:47.394Z,6.30
2023-04-15T07:04:49.250Z,6.40
2023-04-15T07:09:51.981Z,6.50
2023-04-15T07:14:55.878Z,6.60
2023-04-15T07:19:57.813Z,6.70
2023-04-15T07:25:01.144Z,7.00
2023-04-15T07:30:05.574Z,7.30
2023-04-15T07:35:09.760Z,7.30
2023-04-15T07:40:12.013Z,7.20
2023-04-15T07:45:13.942Z,7.10
2023-04-15T07:50:17.281Z,6.90
2023-04-15T07:55:21.371Z,6.80
2023-04-15T08:00:23.670Z,6.80
2023-04-15T08:05:25.939Z,6.90
2023-04-15T08:10:29.726Z,7.10
2023-04-15T08:15:33.025Z,7.20
2023-04-15T08:20:35.062Z,7.40
2023-04-15T08:25:38.993Z,7.90
2023-04-15T08:30:41.276Z,8.50
2023-04-15T08:35:43.120Z,8.80
2023-04-15T08:40:46.170Z,8.70
2023-04-15T08:45:49.742Z,8.70
2023-04-15T08:50:52.177Z,8.70
2023-04-15T08:55:55.775Z,8.80
2023-04-15T09:00:57.881Z,8.50
2023-04-15T09:06:00.089Z,8.30
2023-04-15T09:11:04.751Z,8.60
2023-04-15T09:16:09.391Z,8.30
2023-04-15T09:21:13.248Z,8.30
2023-04-15T09:26:17.242Z,8.10
2023-04-15T09:31:30.044Z,8.20
2023-04-15T09:36:52.871Z,8.20
2023-04-15T09:42:08.342Z,8.20
2023-04-15T09:47:10.447Z,8.30
2023-04-15T09:52:14.247Z,8.50
2023-04-15T09:57:17.160Z,8.60
2023-04-15T10:02:21.311Z,8.50
2023-04-15T10:07:23.843Z,8.30
2023-04-15T10:12:26.364Z,8.10
2023-04-15T10:17:35.543Z,8.00
2023-04-15T10:22:37.947Z,7.90
2023-04-15T10:27:40.855Z,8.00
2023-04-15T10:32:42.845Z,8.20
2023-04-15T10:37:50.819Z,8.60
2023-04-15T10:42:54.318Z,9.00
2023-04-15T10:47:59.967Z,9.40
2023-04-15T10:53:04.911Z,9.90
2023-04-15T10:58:10.050Z,10.10
2023-04-15T11:03:12.665Z,10.10
2023-04-15T11:08:15.338Z,10.00
2023-04-15T11:13:25.414Z,9.90
2023-04-15T11:18:30.684Z,9.60
2023-04-15T11:23:35.818Z,9.40
2023-04-15T11:28:40.112Z,9.20
2023-04-15T11:33:57.234Z,9.10
2023-04-15T11:39:01.198Z,9.20
2023-04-15T11:44:16.414Z,9.40
2023-04-15T11:49:33.900Z,9.70
2023-04-15T11:54:37.548Z,10.00
2023-04-15T11:59:46.072Z,10.40
2023-04-15T12:04:51.018Z,10.50
2023-04-15T12:09:57.402Z,10.50
2023-04-15T12:14:59.966Z,10.30
2023-04-15T12:20:01.899Z,10.10
2023-04-15T12:25:04.562Z,10.00
2023-04-15T12:30:07.958Z,9.80
2023-04-15T12:35:11.022Z,9.80
2023-04-15T12:40:13.188Z,9.90
2023-04-15T12:45:15.433Z,9.90
2023-04-15T12:50:18.523Z,9.90
2023-04-15T12:55:20.409Z,9.70
2023-04-15T13:00:25.186Z,9.80
2023-04-15T13:05:27.064Z,9.70
2023-04-15T13:10:29.324Z,9.80
2023-04-15T13:15:33.219Z,9.90
2023-04-15T13:20:35.430Z,9.90
2023-04-15T13:25:37.278Z,9.80
2023-04-15T13:30:40.538Z,9.60
2023-04-15T13:35:43.436Z,9.50
2023-04-15T13:40:45.467Z,9.50
2023-04-15T13:45:47.872Z,9.50
2023-04-15T13:50:50.323Z,9.70
2023-04-15T13:55:52.210Z,10.10
2023-04-15T14:00:54.136Z,10.40
2023-04-15T14:05:57.017Z,10.60
2023-04-15T14:10:58.936Z,10.70
2023-04-15T14:16:00.939Z,10.70
2023-04-15T14:21:02.862Z,10.70
2023-04-15T14:26:04.964Z,10.80
2023-04-15T14:31:06.890Z,10.90
2023-04-15T14:36:09.449Z,11.20
2023-04-15T14:41:12.341Z,11.30
2023-04-15T14:46:15.663Z,11.10
2023-04-15T14:51:17.987Z,10.80
2023-04-15T14:56:19.851Z,10.50
2023-04-15T15:01:23.908Z,10.50
2023-04-15T15:06:25.982Z,10.40
2023-04-15T15:11:29.691Z,10.30
2023-04-15T15:16:31.680Z,10.10
2023-04-15T15:21:33.643Z,10.00
2023-04-15T15:26:36.692Z,9.90
2023-04-15T15:31:38.616Z,9.80
2023-04-15T15:36:40.519Z,9.80
2023-04-15T15:41:42.358Z,9.80
2023-04-15T15:46:45.690Z,9.80
2023-04-15T15:51:47.784Z,9.80
2023-04-15T15:56:50.076Z,9.80
2023-04-15T16:01:52.000Z,9.80
2023-04-15T16:06:53.942Z,9.80
2023-04-15T16:11:55.940Z,9.70
2023-04-15T16:16:58.342Z,9.70
2023-04-15T16:22:01.167Z,9.60
2023-04-15T16:27:03.080Z,9.50
2023-04-15T16:32:05.633Z,9.50
2023-04-15T16:37:07.478Z,9.40
2023-04-15T16:42:09.952Z,9.30
2023-04-15T16:47:12.096Z,9.20
2023-04-15T16:52:14.981Z,9.10
2023-04-15T16:57:16.896Z,9.00
2023-04-15T17:02:20.209Z,8.90
2023-04-15T17:07:22.177Z,8.90
2023-04-15T17:12:24.017Z,8.80
2023-04-15T17:17:25.933Z,8.70
2023-04-15T17:22:27.812Z,8.60
2023-04-15T17:27:30.959Z,8.50
2023-04-15T17:32:34.802Z,8.30
2023-04-15T17:37:38.872Z,8.20
2023-04-15T17:42:41.345Z,8.00
2023-04-15T17:47:43.442Z,7.80
2023-04-15T17:52:48.469Z,7.70
2023-04-15T17:57:50.744Z,7.60
2023-04-15T18:02:56.072Z,7.40
2023-04-15T18:07:58.104Z,7.30
2023-04-15T18:13:00.142Z,7.20
2023-04-15T18:18:02.609Z,7.10
2023-04-15T18:23:04.500Z,7.00
2023-04-15T18:28:06.437Z,6.80
2023-04-15T18:33:08.375Z,6.70
2023-04-15T18:38:11.286Z,6.60
2023-04-15T18:43:13.109Z,6.50
2023-04-15T18:48:15.992Z,6.50
2023-04-15T18:53:20.177Z,6.40
2023-04-15T18:58:22.242Z,6.20
2023-04-15T19:03:24.152Z,6.20
2023-04-15T19:08:26.041Z,6.10
2023-04-15T19:13:27.888Z,6.00
2023-04-15T19:18:29.713Z,6.00
2023-04-15T19:23:34.690Z,5.90
2023-04-15T19:28:37.901Z,5.80
2023-04-15T19:33:39.814Z,5.70
2023-04-15T19:38:45.133Z,5.60
2023-04-15T19:43:50.574Z,5.50
2023-04-15T19:49:20.621Z,5.50
2023-04-15T19:54:31.251Z,4.90
2023-04-15T19:59:34.501Z,5.40
2023-04-15T20:04:36.698Z,5.30
2023-04-15T20:09:40.098Z,5.30
2023-04-15T20:14:41.977Z,5.20
2023-04-15T20:19:43.907Z,5.10
2023-04-15T20:24:45.726Z,5.10
2023-04-15T20:29:50.098Z,5.10
2023-04-15T20:34:52.001Z,5.10
2023-04-15T20:39:56.270Z,5.10
2023-04-15T20:44:58.180Z,6.40
2023-04-15T20:50:22.671Z,5.00
2023-04-15T20:55:24.711Z,5.10
2023-04-15T21:00:29.976Z,5.10
2023-04-15T21:05:31.958Z,5.00
2023-04-15T21:10:35.329Z,5.00
2023-04-15T21:15:39.286Z,4.90
2023-04-15T21:20:42.215Z,4.80
2023-04-15T21:25:53.647Z,4.80
2023-04-15T21:30:59.319Z,4.80
2023-04-15T21:36:01.188Z,4.80
2023-04-15T21:41:09.455Z,4.80
2023-04-15T21:46:23.537Z,4.80
2023-04-15T21:51:27.751Z,4.80
2023-04-15T21:56:29.681Z,4.80
2023-04-15T22:01:31.842Z,4.80
2023-04-15T22:06:33.806Z,4.70
2023-04-15T22:11:35.630Z,4.70
2023-04-15T22:16:37.523Z,4.60
2023-04-15T22:21:39.422Z,4.50
2023-04-15T22:26:41.508Z,4.40
2023-04-15T22:31:43.434Z,4.30
2023-04-15T22:36:45.438Z,4.20
2023-04-15T22:41:49.919Z,4.10
2023-04-15T22:46:52.002Z,4.10
2023-04-15T22:51:53.851Z,4.00
2023-04-15T22:56:56.446Z,3.90
2023-04-15T23:01:59.381Z,3.90
2023-04-15T23:07:01.381Z,3.90
2023-04-15T23:12:03.715Z,3.80
2023-04-15T23:17:05.657Z,3.70
2023-04-15T23:22:10.549Z,3.70
2023-04-15T23:27:12.506Z,3.60
2023-04-15T23:32:17.258Z,3.50
2023-04-15T23:37:20.774Z,3.50
2023-04-15T23:42:24.162Z,3.50
2023-04-15T23:47:26.337Z,3.40
2023-04-15T23:52:28.263Z,3.30
2023-04-15T23:57:30.130Z,3.10
